Time;durP1;ratioP1;P1;durP2;ratioP2;P2;SDS_P1;SDS_P2;PMS_P1;PMS_P2;Temp;Humidity;BMP_temperature;BMP_pressure;BME280_temperature;BME280_humidity;BME280_pressure;Samples;Min_cycle;Max_cycle;Signal;HPM_P1;HPM_P2
2022/09/09 00:00:27;;;;;;;1.87;1.00;;;17.60;78.80;;;;;;5061877;28;20857;-71
2022/09/09 00:03:02;;;;;;;2.47;0.90;;;17.50;79.70;;;;;;5059831;28;20432;-72
2022/09/09 00:05:38;;;;;;;3.22;1.10;;;17.60;78.80;;;;;;5065174;28;20485;-70
2022/09/09 00:08:05;;;;;;;2.80;0.98;;;17.50;78.70;;;;;;5065488;28;20415;-71
2022/09/09 00:10:39;;;;;;;1.80;0.70;;;17.50;78.90;;;;;;5065284;28;20865;-72
2022/09/09 00:13:16;;;;;;;1.50;0.70;;;17.40;78.90;;;;;;5064078;28;20473;-72
2022/09/09 00:15:54;;;;;;;2.50;0.93;;;17.40;79.90;;;;;;5056891;28;20502;-70
2022/09/09 00:18:29;;;;;;;2.00;0.90;;;17.40;79.20;;;;;;5062146;28;20416;-70
2022/09/09 00:21:04;;;;;;;3.55;1.10;;;17.40;80.00;;;;;;5063242;28;20435;-70
2022/09/09 00:23:33;;;;;;;2.00;1.10;;;17.30;80.80;;;;;;5063717;28;20432;-70
2022/09/09 00:26:07;;;;;;;3.00;1.10;;;17.30;79.80;;;;;;5061912;28;20751;-72
2022/09/09 00:28:39;;;;;;;4.32;1.20;;;17.30;79.70;;;;;;5063848;28;20442;-72
2022/09/09 00:31:14;;;;;;;3.13;0.90;;;17.30;79.80;;;;;;5062580;28;20432;-72
2022/09/09 00:33:42;;;;;;;2.20;1.10;;;17.30;79.80;;;;;;5043817;28;20417;-71
2022/09/09 00:36:15;;;;;;;1.70;1.08;;;17.40;78.90;;;;;;5043749;28;20429;-71
2022/09/09 00:38:46;;;;;;;2.78;1.10;;;17.40;79.00;;;;;;5043696;28;21012;-71
2022/09/09 00:41:19;;;;;;;2.10;0.90;;;17.40;79.00;;;;;;5055591;28;20512;-73
2022/09/09 00:43:56;;;;;;;1.67;0.82;;;17.40;77.80;;;;;;5056971;28;20832;-72
2022/09/09 00:46:51;;;;;;;2.20;0.90;;;17.30;77.30;;;;;;5059602;28;20427;-71
2022/09/09 00:49:29;;;;;;;1.70;0.80;;;17.30;77.40;;;;;;5061413;28;20446;-71
2022/09/09 00:52:05;;;;;;;1.58;0.80;;;17.40;76.70;;;;;;5063317;28;20459;-73
2022/09/09 00:54:40;;;;;;;1.40;1.00;;;17.30;76.50;;;;;;5062387;28;20460;-72
2022/09/09 00:57:26;;;;;;;2.00;0.90;;;17.30;76.60;;;;;;5062830;28;20497;-71
2022/09/09 00:59:58;;;;;;;1.90;0.80;;;17.30;76.50;;;;;;5062552;28;20474;-71
2022/09/09 01:02:34;;;;;;;1.80;0.70;;;17.20;76.90;;;;;;5060251;28;20812;-72
2022/09/09 01:05:08;;;;;;;1.30;0.65;;;17.20;77.50;;;;;;5054188;28;20518;-72
2022/09/09 01:07:36;;;;;;;1.90;0.90;;;17.20;76.80;;;;;;5062616;28;20502;-72
2022/09/09 01:10:08;;;;;;;1.70;0.90;;;17.20;77.00;;;;;;5055102;28;20721;-71
2022/09/09 01:12:41;;;;;;;2.10;1.00;;;17.20;77.10;;;;;;5063476;28;20415;-72
2022/09/09 01:15:13;;;;;;;2.20;0.80;;;17.20;76.90;;;;;;5061422;28;20450;-71
2022/09/09 01:17:50;;;;;;;1.77;0.90;;;17.20;77.20;;;;;;5055158;28;20412;-71
2022/09/09 01:20:21;;;;;;;1.80;0.70;;;17.20;77.00;;;;;;5063201;28;20415;-71
2022/09/09 01:23:03;;;;;;;1.37;0.70;;;17.10;77.90;;;;;;5063020;28;20428;-71
2022/09/09 01:28:04;;;;;;;1.73;1.00;;;17.10;77.70;;;;;;5001568;28;20440;-72
2022/09/09 01:30:32;;;;;;;1.50;0.90;;;17.10;79.00;;;;;;5003723;28;20475;-71
2022/09/09 01:33:00;;;;;;;2.20;1.20;;;17.00;78.70;;;;;;5005389;28;20417;-72
2022/09/09 01:35:41;;;;;;;1.35;0.95;;;17.00;79.20;;;;;;5005676;28;20432;-73
2022/09/09 01:38:08;;;;;;;2.58;1.10;;;17.00;80.30;;;;;;5006279;28;20435;-73
2022/09/09 01:40:35;;;;;;;2.27;1.07;;;16.90;79.90;;;;;;5005895;28;20424;-73
2022/09/09 01:43:04;;;;;;;2.20;1.10;;;17.00;79.40;;;;;;5005749;28;20432;-73
2022/09/09 01:45:31;;;;;;;2.30;1.17;;;16.90;80.20;;;;;;4998856;28;20431;-71
2022/09/09 01:47:59;;;;;;;3.00;1.10;;;16.90;80.20;;;;;;5000863;28;20797;-72
2022/09/09 01:50:26;;;;;;;1.47;0.80;;;16.90;80.20;;;;;;5005403;28;20706;-72
2022/09/09 01:52:57;;;;;;;3.13;1.13;;;16.90;80.50;;;;;;5004597;28;20421;-72
2022/09/09 01:55:30;;;;;;;2.38;1.00;;;16.90;80.60;;;;;;4992172;28;20510;-74
2022/09/09 01:58:09;;;;;;;1.48;0.90;;;16.90;80.20;;;;;;5001074;28;20494;-71
2022/09/09 02:00:42;;;;;;;2.55;1.10;;;16.90;80.30;;;;;;5003025;28;20912;-73
2022/09/09 02:03:19;;;;;;;1.85;1.13;;;16.90;80.10;;;;;;5005461;28;20442;-73
2022/09/09 02:05:51;;;;;;;1.80;1.02;;;16.90;80.20;;;;;;5008361;28;20743;-73
2022/09/09 02:08:24;;;;;;;2.35;1.05;;;16.90;80.10;;;;;;5008811;28;20429;-73
2022/09/09 02:10:57;;;;;;;1.90;0.93;;;16.90;79.80;;;;;;5005511;28;21881;-72
2022/09/09 02:13:26;;;;;;;1.88;1.05;;;17.00;79.20;;;;;;5006497;28;20423;-72
2022/09/09 02:15:56;;;;;;;3.58;1.50;;;17.00;79.30;;;;;;5003714;28;20450;-73
2022/09/09 02:18:28;;;;;;;2.47;1.13;;;17.00;79.50;;;;;;5008778;28;20435;-72
2022/09/09 02:20:57;;;;;;;3.08;1.20;;;17.00;79.90;;;;;;4989417;28;20440;-74
2022/09/09 02:23:24;;;;;;;2.80;1.00;;;16.90;79.90;;;;;;4988278;28;20441;-73
2022/09/09 02:25:54;;;;;;;3.10;1.10;;;16.90;80.60;;;;;;4997490;28;20440;-73
2022/09/09 02:28:23;;;;;;;4.13;1.27;;;16.90;80.20;;;;;;5029349;28;20415;-73
2022/09/09 02:30:54;;;;;;;2.35;1.20;;;17.00;80.10;;;;;;5026986;28;20431;-73
2022/09/09 02:33:25;;;;;;;2.50;0.95;;;17.00;80.00;;;;;;5028153;28;20485;-72
2022/09/09 02:35:53;;;;;;;3.08;1.30;;;17.00;80.10;;;;;;5028719;28;20426;-74
2022/09/09 02:38:23;;;;;;;4.22;1.40;;;16.90;80.00;;;;;;5028060;28;20901;-73
2022/09/09 02:40:49;;;;;;;2.27;1.13;;;17.00;79.90;;;;;;5023754;28;20452;-73
2022/09/09 02:43:18;;;;;;;2.90;1.55;;;17.00;79.90;;;;;;5025406;28;20872;-71
2022/09/09 02:45:53;;;;;;;3.03;1.40;;;17.00;79.00;;;;;;5020185;28;20447;-73
2022/09/09 02:48:31;;;;;;;2.88;1.35;;;17.00;79.50;;;;;;5027961;28;20419;-73
2022/09/09 02:51:05;;;;;;;2.90;1.30;;;17.00;80.30;;;;;;5027505;28;20430;-73
2022/09/09 02:53:41;;;;;;;2.80;1.23;;;17.00;79.50;;;;;;5027552;28;21171;-72
2022/09/09 02:56:14;;;;;;;2.50;1.30;;;17.00;79.60;;;;;;5020592;28;20438;-73
2022/09/09 02:58:41;;;;;;;2.63;1.15;;;17.00;79.60;;;;;;5022230;28;20783;-73
2022/09/09 03:01:08;;;;;;;3.20;1.48;;;17.00;80.00;;;;;;5024267;28;20438;-72
2022/09/09 03:03:37;;;;;;;2.60;1.00;;;17.00;80.10;;;;;;5028370;28;20427;-73
2022/09/09 03:06:05;;;;;;;3.47;1.70;;;17.00;80.30;;;;;;5028096;28;20418;-72
2022/09/09 03:08:32;;;;;;;3.67;1.40;;;17.00;80.60;;;;;;5027715;28;20423;-73
2022/09/09 03:11:01;;;;;;;2.70;1.20;;;17.00;80.30;;;;;;5027343;28;20427;-72
2022/09/09 03:13:28;;;;;;;2.60;1.30;;;17.00;80.40;;;;;;5027567;28;20422;-72
2022/09/09 03:15:55;;;;;;;2.90;1.35;;;16.90;80.90;;;;;;5023730;28;20765;-72
2022/09/09 03:18:22;;;;;;;2.85;1.50;;;17.00;80.60;;;;;;5027774;28;20425;-72
2022/09/09 03:20:52;;;;;;;3.53;1.30;;;17.00;80.70;;;;;;5013569;28;20456;-72
2022/09/09 03:23:19;;;;;;;3.58;1.40;;;17.00;81.20;;;;;;5006830;28;20473;-73
2022/09/09 03:25:49;;;;;;;3.55;1.40;;;16.90;81.20;;;;;;5007908;28;20450;-72
2022/09/09 03:28:16;;;;;;;2.80;1.65;;;16.90;81.20;;;;;;5024806;28;20435;-72
2022/09/09 03:30:43;;;;;;;3.10;1.33;;;16.90;80.90;;;;;;5022789;28;20435;-72
2022/09/09 03:33:10;;;;;;;3.70;1.50;;;17.00;81.00;;;;;;5026579;28;20780;-73
2022/09/09 03:35:37;;;;;;;2.95;1.65;;;17.00;80.70;;;;;;5014027;28;20459;-73
2022/09/09 03:38:05;;;;;;;3.90;1.30;;;17.00;80.80;;;;;;5007399;28;20919;-73
2022/09/09 03:40:32;;;;;;;4.07;1.30;;;17.00;80.70;;;;;;5004641;28;20424;-73
2022/09/09 03:42:59;;;;;;;5.47;1.90;;;16.90;80.50;;;;;;5020270;28;20458;-73
2022/09/09 03:45:26;;;;;;;3.67;1.40;;;17.00;80.50;;;;;;5025933;28;20958;-73
2022/09/09 03:47:52;;;;;;;4.43;1.50;;;17.00;80.30;;;;;;5027561;28;20415;-73
2022/09/09 03:50:19;;;;;;;4.57;1.50;;;17.10;80.50;;;;;;5017528;28;20431;-72
2022/09/09 03:52:46;;;;;;;3.87;1.33;;;17.00;80.90;;;;;;5026640;28;20431;-73
2022/09/09 03:55:14;;;;;;;3.37;1.30;;;17.00;80.70;;;;;;5025780;28;20522;-73
2022/09/09 03:57:41;;;;;;;4.25;1.73;;;17.00;81.20;;;;;;5027414;28;20415;-73
2022/09/09 04:00:09;;;;;;;4.32;1.40;;;17.00;80.60;;;;;;5022380;28;20435;-71
2022/09/09 04:02:36;;;;;;;3.43;1.60;;;17.00;81.00;;;;;;5006997;28;20430;-72
2022/09/09 04:05:03;;;;;;;2.78;1.30;;;17.00;81.10;;;;;;5021662;28;20427;-71
2022/09/09 04:07:30;;;;;;;3.80;1.75;;;16.90;81.20;;;;;;5015965;28;20443;-73
2022/09/09 04:09:57;;;;;;;3.35;1.42;;;17.00;81.40;;;;;;5016587;28;21008;-72
2022/09/09 04:12:25;;;;;;;2.65;1.40;;;16.90;81.40;;;;;;5016292;28;20443;-71
2022/09/09 04:14:52;;;;;;;2.83;1.23;;;17.00;80.70;;;;;;5009740;28;20522;-72
2022/09/09 04:17:19;;;;;;;3.83;1.40;;;17.00;80.60;;;;;;5017482;28;20933;-72
2022/09/09 04:19:46;;;;;;;2.90;1.50;;;17.00;80.80;;;;;;5012658;28;20489;-71
2022/09/09 04:22:13;;;;;;;2.60;1.33;;;16.90;80.90;;;;;;5018125;28;20503;-72
2022/09/09 04:24:39;;;;;;;3.38;1.30;;;16.90;81.40;;;;;;5025620;28;20438;-72
2022/09/09 04:27:06;;;;;;;3.80;1.35;;;16.90;81.60;;;;;;5019403;28;20422;-72
2022/09/09 04:29:34;;;;;;;3.28;1.50;;;16.90;81.30;;;;;;5024907;28;20418;-72
2022/09/09 04:32:02;;;;;;;5.47;1.88;;;16.90;81.60;;;;;;5025034;28;20445;-72
2022/09/09 04:34:29;;;;;;;3.95;1.70;;;17.00;81.60;;;;;;5025851;28;20423;-72
2022/09/09 04:36:56;;;;;;;2.92;1.40;;;16.90;81.30;;;;;;5024932;28;20856;-72
2022/09/09 04:39:23;;;;;;;3.17;1.50;;;16.90;82.00;;;;;;5015210;28;20444;-72
2022/09/09 04:41:50;;;;;;;5.50;1.63;;;16.90;81.20;;;;;;5020065;28;20769;-74
2022/09/09 04:44:17;;;;;;;3.90;1.90;;;16.90;80.90;;;;;;5024311;28;20489;-72
2022/09/09 04:46:45;;;;;;;5.93;2.00;;;17.00;79.70;;;;;;5026753;28;20428;-70
2022/09/09 04:49:12;;;;;;;4.22;1.70;;;17.10;79.40;;;;;;5026104;28;20438;-71
2022/09/09 04:51:38;;;;;;;4.47;1.90;;;17.00;79.70;;;;;;5023173;28;20429;-70
2022/09/09 04:54:05;;;;;;;2.72;1.55;;;17.00;80.10;;;;;;5025656;28;20896;-71
2022/09/09 04:56:32;;;;;;;4.38;1.70;;;17.00;79.60;;;;;;5017609;28;20922;-71
2022/09/09 04:58:59;;;;;;;3.88;1.80;;;17.00;80.30;;;;;;5014322;28;20425;-71
2022/09/09 05:01:26;;;;;;;3.78;1.83;;;17.00;80.50;;;;;;5010919;28;20444;-71
2022/09/09 05:03:55;;;;;;;4.35;1.88;;;17.10;80.40;;;;;;5021803;28;20649;-70
2022/09/09 05:06:23;;;;;;;3.20;1.45;;;17.10;79.60;;;;;;5017937;28;20823;-72
2022/09/09 05:08:50;;;;;;;3.55;1.70;;;17.10;80.20;;;;;;5024054;28;20919;-71
2022/09/09 05:11:18;;;;;;;3.38;1.60;;;17.10;80.00;;;;;;5016629;28;20436;-69
2022/09/09 05:13:46;;;;;;;4.95;2.00;;;17.10;80.10;;;;;;5021216;28;20435;-71
2022/09/09 05:16:13;;;;;;;4.82;1.45;;;17.10;79.60;;;;;;5024569;28;20433;-70
2022/09/09 05:18:40;;;;;;;3.17;1.33;;;17.10;80.90;;;;;;5024891;28;20419;-71
2022/09/09 05:21:09;;;;;;;2.35;1.30;;;17.10;83.10;;;;;;5018617;28;20435;-71
2022/09/09 05:23:36;;;;;;;5.57;1.60;;;17.10;83.50;;;;;;5023403;28;20427;-71
2022/09/09 05:26:04;;;;;;;5.33;2.10;;;17.00;86.40;;;;;;5023803;28;20427;-72
2022/09/09 05:28:31;;;;;;;5.60;2.20;;;16.90;87.10;;;;;;5022775;28;20945;-71
2022/09/09 05:31:00;;;;;;;4.43;2.03;;;16.80;88.10;;;;;;5012883;28;20587;-72
2022/09/09 05:33:27;;;;;;;4.30;1.70;;;16.70;89.90;;;;;;5006746;28;20476;-71
2022/09/09 05:35:58;;;;;;;4.65;1.70;;;16.60;90.00;;;;;;5019416;28;20424;-72
2022/09/09 05:38:27;;;;;;;4.30;1.90;;;16.60;90.10;;;;;;5027421;28;20439;-70
2022/09/09 05:40:54;;;;;;;2.60;1.60;;;16.60;89.80;;;;;;5012313;28;20793;-70
2022/09/09 05:43:21;;;;;;;3.85;1.58;;;16.50;89.90;;;;;;5018909;28;20800;-71
2022/09/09 05:45:48;;;;;;;3.28;1.60;;;16.50;89.90;;;;;;5028946;28;20417;-71
2022/09/09 05:48:16;;;;;;;4.90;1.70;;;16.50;87.90;;;;;;5026636;28;20446;-69
2022/09/09 05:50:44;;;;;;;5.75;2.00;;;16.50;88.00;;;;;;5021150;28;20435;-71
2022/09/09 05:53:11;;;;;;;4.53;1.65;;;16.60;88.30;;;;;;5024081;28;20605;-71
2022/09/09 05:55:40;;;;;;;4.32;1.65;;;16.50;87.70;;;;;;5027623;28;20919;-72
2022/09/09 05:58:09;;;;;;;5.00;1.90;;;16.60;87.80;;;;;;5025025;28;20516;-71
2022/09/09 06:00:36;;;;;;;5.22;1.80;;;16.50;88.60;;;;;;5016398;28;21023;-69
2022/09/09 06:03:03;;;;;;;4.03;1.65;;;16.60;87.20;;;;;;5025398;28;21032;-71
2022/09/09 06:05:30;;;;;;;4.40;1.60;;;16.60;86.80;;;;;;5019557;28;20441;-70
2022/09/09 06:07:57;;;;;;;2.90;1.60;;;16.70;86.20;;;;;;5023664;28;20913;-72
2022/09/09 06:10:24;;;;;;;3.30;1.30;;;16.80;85.00;;;;;;5017114;28;20443;-70
2022/09/09 06:12:54;;;;;;;2.50;1.10;;;16.80;83.70;;;;;;5022161;28;20607;-69
2022/09/09 06:15:21;;;;;;;2.55;1.30;;;16.90;83.80;;;;;;5027219;28;20414;-69
2022/09/09 06:17:54;;;;;;;3.38;1.80;;;16.90;84.50;;;;;;5028235;28;20426;-71
2022/09/09 06:20:21;;;;;;;5.85;1.40;;;17.00;82.20;;;;;;5007636;28;20498;-71
2022/09/09 06:22:48;;;;;;;3.20;1.37;;;17.00;82.00;;;;;;5026480;28;20460;-73
2022/09/09 06:25:15;;;;;;;3.40;1.70;;;17.00;81.70;;;;;;5017707;28;20959;-73
2022/09/09 06:27:42;;;;;;;7.50;2.00;;;17.00;82.50;;;;;;5024881;28;20449;-72
2022/09/09 06:30:11;;;;;;;3.78;1.50;;;17.00;81.70;;;;;;5019592;28;20502;-72
2022/09/09 06:32:39;;;;;;;3.60;1.40;;;17.10;80.20;;;;;;5026690;28;20426;-72
2022/09/09 06:35:07;;;;;;;3.92;1.80;;;17.10;81.30;;;;;;5017054;28;20501;-71
2022/09/09 06:37:34;;;;;;;4.10;1.63;;;17.10;81.60;;;;;;5022805;28;20464;-72
2022/09/09 06:40:01;;;;;;;4.27;1.70;;;17.10;80.30;;;;;;5010931;28;20452;-71
2022/09/09 06:42:28;;;;;;;4.00;1.60;;;17.10;80.60;;;;;;5007307;28;20425;-70
2022/09/09 06:44:54;;;;;;;3.30;1.30;;;17.10;81.30;;;;;;5017035;28;20949;-71
2022/09/09 06:47:24;;;;;;;4.55;1.55;;;17.20;80.30;;;;;;5022537;28;20440;-71
2022/09/09 06:49:51;;;;;;;4.57;1.50;;;17.30;80.30;;;;;;5015836;28;20439;-71
2022/09/09 06:52:18;;;;;;;5.20;2.00;;;17.30;79.10;;;;;;5024697;28;20869;-72
2022/09/09 06:54:45;;;;;;;3.60;1.70;;;17.30;80.40;;;;;;5017808;28;20425;-73
2022/09/09 06:57:11;;;;;;;3.40;1.60;;;17.40;80.20;;;;;;5027408;28;20425;-70
2022/09/09 06:59:38;;;;;;;4.10;1.55;;;17.40;79.20;;;;;;5010874;28;20431;-69
2022/09/09 07:02:05;;;;;;;5.10;2.05;;;17.60;78.40;;;;;;5011328;28;20431;-70
2022/09/09 07:04:33;;;;;;;5.43;1.75;;;17.70;77.70;;;;;;5025588;28;20427;-71
2022/09/09 07:07:00;;;;;;;3.92;1.77;;;17.90;76.30;;;;;;5016241;28;20426;-72
2022/09/09 07:09:29;;;;;;;3.80;1.40;;;17.90;75.10;;;;;;5025548;28;20502;-72
2022/09/09 07:11:59;;;;;;;3.65;1.40;;;18.10;75.20;;;;;;5017130;28;20444;-71
2022/09/09 07:14:26;;;;;;;3.70;1.50;;;18.20;74.30;;;;;;5021120;28;20971;-71
2022/09/09 07:16:53;;;;;;;2.85;1.30;;;18.30;73.40;;;;;;5024084;28;20625;-71
2022/09/09 07:19:20;;;;;;;3.35;1.40;;;18.40;72.40;;;;;;5012104;28;20433;-71
2022/09/09 07:21:49;;;;;;;4.35;1.60;;;18.50;69.60;;;;;;5020021;28;20931;-72
2022/09/09 07:24:16;;;;;;;3.03;1.20;;;18.60;69.70;;;;;;5023315;28;20430;-70
2022/09/09 07:26:43;;;;;;;2.70;1.15;;;18.70;69.00;;;;;;5019507;28;20439;-70
2022/09/09 07:29:13;;;;;;;4.25;1.55;;;18.80;69.20;;;;;;5020332;28;20514;-72
2022/09/09 07:31:40;;;;;;;5.90;1.20;;;18.90;67.90;;;;;;5026432;28;20423;-72
2022/09/09 07:34:07;;;;;;;3.50;1.25;;;18.90;67.60;;;;;;5016631;28;20796;-71
2022/09/09 07:36:36;;;;;;;2.40;1.30;;;19.00;66.30;;;;;;5053274;22;20431;-68
2022/09/09 07:39:06;;;;;;;5.00;1.70;;;19.20;66.60;;;;;;5051825;28;20768;-66
2022/09/09 07:41:35;;;;;;;3.85;1.13;;;19.30;65.80;;;;;;5062493;28;20505;-68
2022/09/09 07:44:07;;;;;;;4.40;1.50;;;19.50;66.00;;;;;;5061483;28;21022;-71
2022/09/09 07:46:34;;;;;;;2.97;1.20;;;19.80;65.40;;;;;;5061222;28;20435;-70
2022/09/09 07:49:02;;;;;;;3.42;1.05;;;20.10;62.90;;;;;;5063231;28;20519;-68
2022/09/09 07:51:31;;;;;;;4.20;1.20;;;20.20;61.00;;;;;;5063760;28;20486;-69
2022/09/09 07:54:00;;;;;;;5.85;1.33;;;20.30;61.70;;;;;;5062807;28;20435;-69
2022/09/09 07:56:29;;;;;;;3.90;1.42;;;20.30;60.40;;;;;;5061777;28;20452;-69
2022/09/09 07:58:58;;;;;;;3.45;1.30;;;20.10;59.90;;;;;;5063319;28;20447;-70
2022/09/09 08:01:27;;;;;;;3.40;1.30;;;20.00;59.90;;;;;;5061554;28;20804;-70
2022/09/09 08:03:59;;;;;;;4.27;1.50;;;19.80;60.70;;;;;;5064573;28;20698;-70
2022/09/09 08:06:26;;;;;;;4.32;1.70;;;19.70;60.10;;;;;;5064076;28;20495;-67
2022/09/09 08:08:54;;;;;;;5.13;1.40;;;19.50;60.40;;;;;;5061929;28;20493;-70
2022/09/09 08:11:23;;;;;;;4.05;1.60;;;19.40;61.10;;;;;;5057461;28;20858;-70
2022/09/09 08:13:52;;;;;;;6.03;1.40;;;19.30;61.30;;;;;;5058234;28;20440;-67
2022/09/09 08:16:22;;;;;;;4.25;1.60;;;19.30;61.60;;;;;;5061577;28;20964;-70
2022/09/09 08:18:50;;;;;;;2.53;1.35;;;19.20;62.20;;;;;;5061755;28;20415;-68
2022/09/09 08:21:18;;;;;;;5.57;1.58;;;19.20;63.00;;;;;;5060463;28;20434;-69
2022/09/09 08:23:47;;;;;;;4.40;2.03;;;19.10;62.30;;;;;;5052798;28;20696;-70
2022/09/09 08:26:16;;;;;;;3.38;1.38;;;19.20;62.20;;;;;;5061007;28;20943;-69
2022/09/09 08:28:43;;;;;;;3.05;1.20;;;19.20;61.60;;;;;;5057852;28;20427;-70
2022/09/09 08:31:15;;;;;;;4.28;1.55;;;19.10;61.80;;;;;;5061713;28;20423;-69
2022/09/09 08:33:45;;;;;;;4.10;1.40;;;19.20;61.70;;;;;;5062319;28;20417;-68
2022/09/09 08:36:15;;;;;;;3.87;1.50;;;19.40;61.50;;;;;;5061947;28;20464;-68
2022/09/09 08:38:41;;;;;;;3.30;1.30;;;19.70;58.80;;;;;;5058296;28;20422;-69
2022/09/09 08:41:26;;;;;;;3.70;1.30;;;20.00;58.80;;;;;;5059308;28;20453;-68
2022/09/09 08:44:03;;;;;;;3.45;1.25;;;20.10;57.80;;;;;;5061760;28;20415;-70
2022/09/09 08:46:36;;;;;;;3.78;1.13;;;20.20;58.00;;;;;;5062176;28;20483;-70
2022/09/09 08:49:17;;;;;;;3.42;1.50;;;20.30;57.90;;;;;;5061977;28;20545;-70
2022/09/09 08:51:43;;;;;;;2.85;1.40;;;20.30;57.00;;;;;;5050039;28;20435;-70
2022/09/09 08:54:10;;;;;;;3.53;1.30;;;20.20;56.10;;;;;;5060371;28;20525;-70
2022/09/09 08:56:37;;;;;;;3.35;1.20;;;20.10;56.00;;;;;;5059727;28;20449;-70
2022/09/09 08:59:05;;;;;;;4.45;1.10;;;20.00;57.90;;;;;;5061804;28;20495;-70
2022/09/09 09:01:43;;;;;;;3.00;1.38;;;19.90;55.60;;;;;;5056171;28;20451;-70
2022/09/09 09:04:33;;;;;;;4.55;1.40;;;19.80;56.00;;;;;;5061495;28;20431;-72
2022/09/09 09:07:11;;;;;;;3.13;1.10;;;19.80;56.50;;;;;;5065318;28;20818;-72
2022/09/09 09:09:45;;;;;;;3.70;1.10;;;20.00;56.10;;;;;;5050470;28;20426;-73
2022/09/09 09:12:17;;;;;;;3.90;1.20;;;20.10;55.30;;;;;;5059504;28;20532;-73
2022/09/09 09:14:46;;;;;;;3.00;1.20;;;20.20;55.20;;;;;;5061052;28;20419;-72
2022/09/09 09:17:17;;;;;;;2.60;0.90;;;20.20;55.10;;;;;;5061006;28;20438;-73
2022/09/09 09:19:46;;;;;;;2.45;0.90;;;20.20;54.90;;;;;;5060562;28;20420;-71
2022/09/09 09:22:19;;;;;;;1.85;0.93;;;20.20;55.50;;;;;;5057921;28;20431;-73
2022/09/09 09:24:52;;;;;;;2.45;0.90;;;20.20;54.70;;;;;;5060925;28;20435;-72
2022/09/09 09:27:28;;;;;;;1.77;1.00;;;20.20;55.70;;;;;;5060438;28;20439;-71
2022/09/09 09:29:58;;;;;;;2.45;1.20;;;20.10;55.00;;;;;;5059839;28;20427;-71
2022/09/09 09:32:31;;;;;;;3.00;1.10;;;19.90;55.70;;;;;;5059596;28;20430;-71
2022/09/09 09:35:01;;;;;;;2.17;0.90;;;19.80;56.40;;;;;;5061840;28;20434;-72
2022/09/09 09:37:30;;;;;;;2.70;1.20;;;19.70;56.20;;;;;;5061004;28;20497;-71
2022/09/09 09:39:57;;;;;;;3.65;0.80;;;19.60;56.60;;;;;;5058224;28;20815;-74
2022/09/09 09:42:24;;;;;;;3.03;1.10;;;19.60;56.90;;;;;;5062438;28;20419;-73
2022/09/09 09:44:51;;;;;;;4.35;1.13;;;19.60;57.20;;;;;;5063004;28;20907;-73
2022/09/09 09:47:19;;;;;;;2.10;0.90;;;19.60;58.40;;;;;;5062739;28;20472;-73
2022/09/09 09:49:55;;;;;;;3.08;1.40;;;19.70;57.70;;;;;;5062600;28;20593;-73
2022/09/09 09:52:24;;;;;;;2.63;1.10;;;19.80;58.60;;;;;;5061759;28;20467;-73
2022/09/09 09:54:52;;;;;;;2.72;1.10;;;19.80;58.40;;;;;;5059349;28;20518;-72
2022/09/09 09:57:24;;;;;;;2.97;1.20;;;19.80;58.00;;;;;;5061238;28;20514;-73
2022/09/09 10:00:05;;;;;;;2.63;1.10;;;19.90;58.60;;;;;;5062036;28;20744;-73
2022/09/09 10:02:40;;;;;;;4.05;0.88;;;20.00;57.30;;;;;;5060652;28;20477;-73
2022/09/09 10:05:15;;;;;;;2.58;1.00;;;20.10;57.50;;;;;;5062326;28;20518;-73
2022/09/09 10:07:45;;;;;;;2.65;0.80;;;20.40;55.70;;;;;;5058967;28;20521;-73
2022/09/09 10:10:19;;;;;;;2.40;1.05;;;20.50;56.30;;;;;;5061630;28;20686;-73
2022/09/09 10:12:58;;;;;;;2.50;0.82;;;20.60;56.10;;;;;;5061898;28;20424;-71
2022/09/09 10:15:38;;;;;;;2.50;0.80;;;20.60;56.80;;;;;;5049774;28;20418;-73
2022/09/09 10:18:19;;;;;;;2.65;0.73;;;20.60;53.60;;;;;;5062100;28;20429;-73
2022/09/09 10:20:55;;;;;;;2.85;1.00;;;20.50;55.00;;;;;;5064065;28;20507;-73
2022/09/09 10:23:38;;;;;;;1.83;1.00;;;20.40;55.10;;;;;;5062082;28;20434;-73
2022/09/09 10:26:21;;;;;;;2.72;0.80;;;20.30;55.10;;;;;;5062042;28;20437;-72
2022/09/09 10:29:06;;;;;;;2.40;0.75;;;20.20;54.60;;;;;;5066327;28;20431;-71
2022/09/09 10:31:43;;;;;;;2.03;0.80;;;20.10;55.00;;;;;;5054243;28;20422;-71
2022/09/09 10:34:20;;;;;;;1.50;0.70;;;20.00;55.40;;;;;;5063686;28;20434;-71
2022/09/09 10:36:51;;;;;;;1.80;0.90;;;20.00;55.10;;;;;;5063484;28;20521;-71
2022/09/09 10:39:32;;;;;;;1.98;0.70;;;20.00;55.00;;;;;;5063301;28;20446;-71
2022/09/09 10:42:06;;;;;;;3.25;0.90;;;20.10;55.40;;;;;;5055362;28;20435;-72
2022/09/09 10:44:50;;;;;;;3.42;1.00;;;20.20;55.30;;;;;;5062157;28;20446;-72
2022/09/09 10:47:39;;;;;;;2.50;0.93;;;20.40;54.70;;;;;;5064498;28;20412;-72
2022/09/09 10:50:41;;;;;;;2.78;0.80;;;20.50;54.00;;;;;;5067460;28;20523;-72
2022/09/09 10:53:20;;;;;;;2.50;0.80;;;20.50;54.30;;;;;;5059439;28;20725;-73
2022/09/09 10:55:52;;;;;;;2.55;0.80;;;20.60;53.90;;;;;;5062689;28;20725;-73
2022/09/09 10:58:24;;;;;;;2.80;0.88;;;20.50;54.50;;;;;;5062522;28;20427;-71
2022/09/09 11:00:54;;;;;;;2.80;0.80;;;20.50;54.30;;;;;;5049194;28;20943;-71
2022/09/09 11:03:24;;;;;;;1.55;0.80;;;20.70;53.70;;;;;;5063581;28;20447;-74
2022/09/09 11:05:56;;;;;;;2.17;0.80;;;20.90;53.10;;;;;;5053934;28;20447;-72
2022/09/09 11:08:27;;;;;;;3.42;0.65;;;21.10;53.30;;;;;;5059142;28;20431;-72
2022/09/09 11:11:01;;;;;;;2.05;0.90;;;21.10;51.70;;;;;;5061005;28;20514;-72
2022/09/09 11:13:33;;;;;;;2.92;1.00;;;21.20;52.40;;;;;;5060991;28;20426;-72
2022/09/09 11:16:10;;;;;;;2.22;0.80;;;21.20;52.50;;;;;;5063083;28;20418;-71
2022/09/09 11:18:42;;;;;;;3.37;0.80;;;21.10;52.80;;;;;;5063544;28;20494;-74
2022/09/09 11:21:17;;;;;;;3.20;1.00;;;21.10;51.70;;;;;;5061240;28;20508;-74
2022/09/09 11:23:49;;;;;;;2.25;0.90;;;21.10;52.10;;;;;;5064049;28;20427;-72
2022/09/09 11:26:24;;;;;;;3.00;0.90;;;21.00;52.10;;;;;;5062773;28;20482;-71
2022/09/09 11:29:05;;;;;;;2.27;0.90;;;20.80;52.70;;;;;;5063684;28;20902;-73
2022/09/09 11:31:44;;;;;;;1.88;0.85;;;20.80;53.20;;;;;;5049457;28;20419;-72
2022/09/09 11:34:26;;;;;;;2.70;1.10;;;20.70;52.70;;;;;;5056490;28;20437;-71
2022/09/09 11:37:13;;;;;;;2.00;0.77;;;20.70;52.50;;;;;;5062424;28;20423;-73
2022/09/09 11:40:20;;;;;;;1.70;0.88;;;20.60;53.00;;;;;;5055860;28;20501;-72
2022/09/09 11:42:49;;;;;;;2.10;0.80;;;20.70;53.00;;;;;;5061938;28;20426;-71
2022/09/09 11:45:28;;;;;;;2.53;0.90;;;20.80;53.00;;;;;;5062528;28;20431;-72
2022/09/09 11:47:56;;;;;;;2.60;0.80;;;20.80;52.90;;;;;;5061350;28;20786;-71
2022/09/09 11:50:36;;;;;;;4.72;1.30;;;20.80;52.10;;;;;;5063192;28;20422;-71
2022/09/09 11:53:23;;;;;;;4.13;0.88;;;20.90;52.70;;;;;;5063525;28;20740;-72
2022/09/09 11:56:12;;;;;;;1.55;0.80;;;21.00;52.30;;;;;;5054393;28;20433;-73
2022/09/09 11:58:46;;;;;;;2.27;0.70;;;21.10;51.50;;;;;;5060966;28;20435;-71
2022/09/09 12:01:41;;;;;;;2.40;0.80;;;21.10;50.40;;;;;;5061894;28;20423;-74
2022/09/09 12:04:31;;;;;;;2.05;0.90;;;21.00;50.70;;;;;;5057688;28;20485;-73
2022/09/09 12:07:02;;;;;;;2.85;1.00;;;20.90;51.10;;;;;;5063771;28;20431;-73
2022/09/09 12:09:48;;;;;;;2.23;0.80;;;20.90;51.20;;;;;;5062567;28;20948;-73
2022/09/09 12:12:26;;;;;;;3.38;1.10;;;20.80;51.40;;;;;;5062543;28;20419;-73
2022/09/09 12:15:00;;;;;;;2.10;0.90;;;20.70;51.40;;;;;;5062803;28;20416;-73
2022/09/09 12:17:28;;;;;;;1.80;0.80;;;20.70;52.30;;;;;;5060220;28;20420;-73
2022/09/09 12:20:07;;;;;;;1.80;0.80;;;20.70;51.30;;;;;;5058136;28;20788;-71
2022/09/09 12:22:44;;;;;;;2.53;0.90;;;20.70;51.60;;;;;;5058698;28;20424;-71
2022/09/09 12:25:23;;;;;;;3.03;1.00;;;20.70;51.80;;;;;;5056620;28;20685;-74
2022/09/09 12:28:03;;;;;;;2.57;0.80;;;20.70;51.50;;;;;;5053897;28;20427;-72
2022/09/09 12:30:34;;;;;;;2.88;0.80;;;20.80;52.20;;;;;;5060000;28;20475;-73
2022/09/09 12:33:03;;;;;;;1.65;0.70;;;20.90;51.00;;;;;;5062705;28;20412;-73
2022/09/09 12:35:31;;;;;;;2.17;0.60;;;21.00;51.70;;;;;;5058125;28;20435;-71
2022/09/09 12:38:02;;;;;;;2.75;0.80;;;21.00;50.90;;;;;;5061288;28;20480;-73
2022/09/09 12:40:31;;;;;;;2.47;0.70;;;21.10;50.50;;;;;;5062063;28;20416;-73
2022/09/09 12:43:01;;;;;;;2.45;0.90;;;21.00;51.20;;;;;;5060243;28;20441;-73
2022/09/09 12:45:31;;;;;;;2.00;0.90;;;21.00;51.30;;;;;;5061791;28;20919;-78
2022/09/09 12:48:01;;;;;;;2.10;0.85;;;20.90;51.40;;;;;;5060395;28;20419;-73
2022/09/09 12:50:30;;;;;;;3.55;1.08;;;20.80;51.60;;;;;;5058053;28;20431;-75
2022/09/09 12:53:00;;;;;;;2.92;0.80;;;20.80;52.10;;;;;;5061724;28;20416;-72
2022/09/09 12:55:30;;;;;;;2.50;1.20;;;20.80;52.50;;;;;;5056718;28;20775;-72
2022/09/09 12:58:00;;;;;;;2.10;0.80;;;20.90;53.60;;;;;;5053326;28;20925;-73
2022/09/09 13:00:28;;;;;;;2.20;0.90;;;21.00;51.90;;;;;;5049865;28;20801;-72
2022/09/09 13:02:56;;;;;;;2.50;1.00;;;21.30;52.40;;;;;;5058721;28;20415;-72
2022/09/09 13:05:25;;;;;;;2.53;0.90;;;21.50;51.70;;;;;;5059524;28;20431;-73
2022/09/09 13:07:52;;;;;;;2.20;0.70;;;21.80;50.80;;;;;;5060509;28;20415;-73
2022/09/09 13:10:27;;;;;;;3.45;1.10;;;21.80;50.00;;;;;;5061679;28;20534;-72